Airport View

Enter AWOS ICAO identifier for current METAR.

ex. KFNL

KRWI 080253Z AUTO 00000KT 10SM CLR 23/22 A3002 RMK AO2 SLP164 T02330222 53002

8 Jul 2020 03:52

Frequency: 118.875

Phone: 252-446-0732

Other Area AWOS: KETC - KLHZ - KGWW - KPGV

TAF KRWI 072329Z 0800/0824 VRB06KT P6SM VCSH SCT035 BKN150 FM080500 VRB03KT 4SM BR BKN012 FM081300 VRB03KT P6SM SCT020 BKN050